NA07 weather

Kornkven Airstrip
Souris, North Dakota, United States

Public forecast

Using degrees Fahrenheit for public forecast. Weather courtesy of forecast.io.

Closest aviation weather report (METAR) to Kornkven Airstrip

Closest report is Minot Air Force Base, 38.6 nm (71.5 km) SW. Retrieved 2019/11/15 09:36 UTC (23 minutes ago):

KMIB 150936Z AUTO 12006KT 1 1/2SM BR OVC002 00/M01 A3011 RMK AO2 SLP218

Closest aviation forecast (TAF) to Kornkven Airstrip

Closest forecast is Minot Air Force Base, 38.6 nm (71.5 km) SW. Retrieved 2019/11/15 09:12 UTC (47 minutes ago):

TAF KMIB 150900Z 1509/1615 VRB06KT 4800 BR OVC003 QNH3012INS BECMG 1515/1516 11012G18KT 9999 NSW OVC003 QNH3008INS BECMG 1609/1610 19010KT 9000 DZ OVC003 QNH2985INS TX02/1520Z TNM01/1512Z